createdAt,value
2022-11-05T00:04:26.751Z,7.67
2022-11-05T00:09:35.368Z,7.60
2022-11-05T00:14:56.174Z,7.54
2022-11-05T00:19:59.881Z,7.47
2022-11-05T00:25:21.978Z,7.44
2022-11-05T00:30:26.906Z,7.44
2022-11-05T00:35:31.489Z,7.41
2022-11-05T00:40:37.234Z,7.40
2022-11-05T00:45:41.145Z,7.31
2022-11-05T00:50:44.816Z,7.38
2022-11-05T00:55:49.961Z,7.24
2022-11-05T01:00:55.228Z,7.11
2022-11-05T01:06:01.227Z,7.18
2022-11-05T01:11:11.658Z,7.15
2022-11-05T01:16:15.748Z,7.11
2022-11-05T01:21:19.461Z,7.11
2022-11-05T01:26:24.933Z,7.07
2022-11-05T01:31:29.213Z,6.96
2022-11-05T01:36:32.879Z,7.06
2022-11-05T01:41:37.898Z,7.02
2022-11-05T01:46:45.468Z,6.98
2022-11-05T01:51:49.881Z,6.97
2022-11-05T01:56:59.096Z,6.97
2022-11-05T02:02:03.844Z,6.90
2022-11-05T02:07:10.251Z,6.83
2022-11-05T02:12:15.962Z,6.79
2022-11-05T02:17:31.493Z,6.79
2022-11-05T02:23:32.816Z,6.78
2022-11-05T02:28:58.615Z,6.72
2022-11-05T02:34:11.259Z,6.68
2022-11-05T02:39:27.444Z,6.63
2022-11-05T02:44:39.584Z,6.60
2022-11-05T02:49:53.358Z,6.56
2022-11-05T02:55:03.327Z,6.52
2022-11-05T03:00:29.305Z,6.49
2022-11-05T03:05:41.511Z,6.50
2022-11-05T03:10:52.813Z,6.50
2022-11-05T03:16:00.217Z,6.38
2022-11-05T03:21:11.703Z,6.39
2022-11-05T03:26:19.949Z,6.34
2022-11-05T03:31:26.258Z,6.39
2022-11-05T03:36:35.187Z,6.31
2022-11-05T03:41:43.210Z,6.31
2022-11-05T03:46:50.234Z,6.24
2022-11-05T03:52:00.027Z,6.19
2022-11-05T03:57:09.606Z,6.19
2022-11-05T04:02:15.223Z,6.17
2022-11-05T04:07:37.924Z,6.16
2022-11-05T04:12:59.252Z,6.17
2022-11-05T04:18:03.029Z,6.16
2022-11-05T04:23:26.226Z,6.14
2022-11-05T04:28:49.904Z,6.09
2022-11-05T04:33:53.600Z,6.04
2022-11-05T04:38:58.855Z,5.98
2022-11-05T04:44:02.634Z,5.95
2022-11-05T04:49:06.324Z,5.93
2022-11-05T04:54:11.379Z,5.91
2022-11-05T04:59:15.096Z,5.92
2022-11-05T05:04:18.774Z,5.88
2022-11-05T05:09:23.773Z,5.89
2022-11-05T05:14:27.404Z,5.82
2022-11-05T05:19:51.253Z,5.75
2022-11-05T05:24:56.660Z,5.80
2022-11-05T05:30:01.141Z,5.75
2022-11-05T05:35:05.165Z,5.77
2022-11-05T05:40:11.983Z,5.73
2022-11-05T05:45:15.659Z,5.74
2022-11-05T05:50:19.346Z,5.70
2022-11-05T05:55:29.673Z,5.85
2022-11-05T06:00:33.397Z,5.82
2022-11-05T06:05:37.080Z,5.83
2022-11-05T06:10:42.100Z,5.82
2022-11-05T06:15:45.786Z,5.77
2022-11-05T06:20:49.500Z,5.77
2022-11-05T06:25:54.518Z,5.73
2022-11-05T06:30:58.266Z,5.68
2022-11-05T06:36:03.274Z,5.69
2022-11-05T06:41:10.468Z,5.69
2022-11-05T06:46:14.450Z,5.67
2022-11-05T06:51:18.189Z,5.63
2022-11-05T06:56:23.283Z,5.55
2022-11-05T07:01:27.116Z,5.58
2022-11-05T07:06:34.353Z,5.61
2022-11-05T07:11:41.957Z,5.61
2022-11-05T07:16:45.960Z,5.63
2022-11-05T07:21:50.886Z,5.65
2022-11-05T07:26:55.944Z,5.69
2022-11-05T07:31:59.613Z,5.67
2022-11-05T07:37:03.289Z,5.70
2022-11-05T07:42:08.318Z,5.75
2022-11-05T07:47:12.537Z,5.82
2022-11-05T07:52:16.254Z,5.82
2022-11-05T07:57:21.345Z,5.84
2022-11-05T08:02:25.318Z,5.95
2022-11-05T08:07:29.566Z,6.06
2022-11-05T08:12:34.787Z,6.09
2022-11-05T08:17:38.486Z,6.20
2022-11-05T08:22:44.409Z,6.32
2022-11-05T08:27:49.556Z,6.40
2022-11-05T08:32:58.208Z,6.57
2022-11-05T08:38:03.702Z,6.71
2022-11-05T08:43:10.785Z,6.80
2022-11-05T08:48:16.655Z,6.95
2022-11-05T08:53:20.352Z,7.05
2022-11-05T08:58:25.422Z,7.21
2022-11-05T09:03:29.128Z,7.36
2022-11-05T09:08:33.009Z,7.61
2022-11-05T09:13:38.177Z,7.86
2022-11-05T09:18:42.401Z,8.02
2022-11-05T09:23:46.757Z,8.23
2022-11-05T09:28:51.911Z,8.51
2022-11-05T09:33:55.968Z,8.86
2022-11-05T09:38:59.810Z,9.15
2022-11-05T09:44:07.098Z,9.10
2022-11-05T09:49:17.288Z,9.19
2022-11-05T09:54:24.226Z,9.23
2022-11-05T09:59:36.170Z,9.40
2022-11-05T10:04:41.587Z,9.45
2022-11-05T10:09:49.492Z,9.39
2022-11-05T10:15:06.261Z,9.42
2022-11-05T10:20:16.016Z,9.45
2022-11-05T10:25:21.950Z,9.59
2022-11-05T10:30:27.128Z,9.77
2022-11-05T10:35:34.162Z,9.62
2022-11-05T10:40:45.267Z,9.97
2022-11-05T10:45:57.220Z,10.12
2022-11-05T10:51:00.946Z,10.14
2022-11-05T10:56:05.219Z,10.35
2022-11-05T11:01:13.275Z,10.29
2022-11-05T11:06:23.889Z,10.63
2022-11-05T11:11:31.884Z,10.72
2022-11-05T11:16:39.772Z,11.31
2022-11-05T11:21:43.493Z,12.08
2022-11-05T11:26:47.251Z,13.16
2022-11-05T11:31:56.335Z,13.68
2022-11-05T11:37:06.437Z,14.27
2022-11-05T11:42:18.526Z,12.89
2022-11-05T11:47:23.723Z,13.42
2022-11-05T11:52:30.409Z,13.73
2022-11-05T11:57:44.631Z,14.07
2022-11-05T12:03:03.955Z,13.83
2022-11-05T12:08:36.123Z,13.89
2022-11-05T12:13:56.342Z,13.43
2022-11-05T12:19:13.276Z,13.65
2022-11-05T12:24:30.668Z,13.58
2022-11-05T12:29:46.195Z,13.01
2022-11-05T12:34:59.146Z,12.75
2022-11-05T12:40:19.427Z,12.69
2022-11-05T12:45:36.517Z,13.05
2022-11-05T12:50:48.485Z,13.03
2022-11-05T12:55:53.746Z,13.30
2022-11-05T13:01:02.506Z,13.53
2022-11-05T13:06:13.128Z,13.41
2022-11-05T13:11:23.639Z,13.23
2022-11-05T13:16:31.742Z,13.34
2022-11-05T13:21:39.292Z,12.85
2022-11-05T13:26:48.160Z,12.74
2022-11-05T13:31:57.462Z,12.69
2022-11-05T13:37:23.409Z,12.57
2022-11-05T13:42:53.414Z,12.58
2022-11-05T13:48:25.175Z,12.48
2022-11-05T13:53:46.333Z,12.49
2022-11-05T13:59:31.796Z,12.53
2022-11-05T14:04:41.102Z,12.28
2022-11-05T14:09:46.806Z,12.33
2022-11-05T14:14:58.910Z,12.12
2022-11-05T14:20:25.989Z,12.28
2022-11-05T14:25:57.101Z,12.30
2022-11-05T14:31:03.096Z,12.24
2022-11-05T14:36:33.320Z,12.25
2022-11-05T14:41:53.298Z,12.13
2022-11-05T14:47:01.869Z,12.08
2022-11-05T14:52:11.816Z,12.10
2022-11-05T14:57:36.398Z,12.14
2022-11-05T15:02:57.960Z,11.85
2022-11-05T15:08:32.626Z,11.94
2022-11-05T15:13:41.634Z,11.97
2022-11-05T15:18:48.312Z,11.96
2022-11-05T15:23:56.320Z,11.77
2022-11-05T15:29:01.993Z,11.74
2022-11-05T15:34:22.264Z,11.60
2022-11-05T15:39:35.114Z,11.46
2022-11-05T15:44:40.916Z,11.49
2022-11-05T15:49:48.170Z,11.42
2022-11-05T15:55:09.591Z,11.36
2022-11-05T16:00:18.598Z,11.25
2022-11-05T16:05:26.465Z,11.26
2022-11-05T16:10:33.015Z,11.28
2022-11-05T16:15:36.761Z,11.22
2022-11-05T16:20:41.912Z,11.09
2022-11-05T16:25:47.194Z,11.11
2022-11-05T16:30:56.820Z,11.06
2022-11-05T16:36:02.185Z,10.98
2022-11-05T16:41:05.990Z,10.99
2022-11-05T16:46:12.019Z,10.99
2022-11-05T16:51:18.708Z,10.89
2022-11-05T16:56:24.949Z,10.94
2022-11-05T17:01:29.027Z,10.87
2022-11-05T17:06:34.178Z,10.89
2022-11-05T17:11:37.913Z,10.91
2022-11-05T17:16:42.384Z,10.85
2022-11-05T17:21:47.521Z,10.71
2022-11-05T17:26:51.287Z,10.75
2022-11-05T17:31:55.284Z,10.74
2022-11-05T17:37:00.321Z,10.68
2022-11-05T17:42:04.025Z,10.58
2022-11-05T17:47:08.143Z,10.61
2022-11-05T17:52:13.254Z,10.54
2022-11-05T17:57:17.193Z,10.56
2022-11-05T18:02:21.118Z,10.59
2022-11-05T18:07:26.348Z,10.51
2022-11-05T18:12:30.186Z,10.59
2022-11-05T18:17:34.050Z,10.54
2022-11-05T18:22:40.373Z,10.52
2022-11-05T18:27:44.465Z,10.51
2022-11-05T18:32:48.331Z,10.45
2022-11-05T18:37:53.374Z,10.39
2022-11-05T18:42:57.031Z,10.43
2022-11-05T18:48:01.483Z,10.47
2022-11-05T18:53:06.672Z,10.46
2022-11-05T18:58:10.941Z,10.36
2022-11-05T19:03:14.873Z,10.34
2022-11-05T19:08:19.881Z,10.40
2022-11-05T19:13:23.573Z,10.32
2022-11-05T19:18:27.290Z,10.29
2022-11-05T19:23:33.917Z,10.16
2022-11-05T19:28:38.166Z,10.22
2022-11-05T19:33:42.145Z,10.14
2022-11-05T19:38:47.388Z,10.03
2022-11-05T19:43:52.425Z,9.97
2022-11-05T19:48:56.396Z,9.92
2022-11-05T19:54:03.282Z,9.97
2022-11-05T19:59:07.595Z,9.92
2022-11-05T20:04:12.207Z,9.96
2022-11-05T20:09:22.219Z,9.99
2022-11-05T20:14:27.570Z,9.89
2022-11-05T20:19:31.433Z,9.76
2022-11-05T20:24:36.733Z,9.70
2022-11-05T20:29:40.811Z,9.58
2022-11-05T20:34:44.577Z,9.62
2022-11-05T20:39:49.751Z,9.57
2022-11-05T20:44:53.508Z,9.50
2022-11-05T20:49:58.405Z,9.44
2022-11-05T20:55:04.392Z,9.46
2022-11-05T21:00:09.583Z,9.48
2022-11-05T21:05:13.326Z,9.42
2022-11-05T21:10:18.418Z,9.35
2022-11-05T21:15:24.291Z,9.30
2022-11-05T21:20:28.565Z,9.27
2022-11-05T21:25:34.333Z,9.20
2022-11-05T21:30:39.260Z,9.29
2022-11-05T21:35:44.827Z,9.31
2022-11-05T21:40:50.063Z,9.31
2022-11-05T21:45:53.809Z,9.34
2022-11-05T21:51:15.703Z,9.43
2022-11-05T21:56:40.655Z,9.41
2022-11-05T22:01:44.556Z,9.43
2022-11-05T22:06:48.424Z,9.50
2022-11-05T22:11:53.870Z,9.41
2022-11-05T22:16:58.240Z,9.41
2022-11-05T22:22:02.092Z,9.38
2022-11-05T22:27:09.880Z,9.34
2022-11-05T22:32:14.208Z,9.39
2022-11-05T22:37:17.909Z,9.39
2022-11-05T22:42:23.063Z,9.41
2022-11-05T22:47:26.814Z,9.42
2022-11-05T22:52:30.510Z,9.49
2022-11-05T22:57:35.659Z,9.40
2022-11-05T23:02:39.641Z,9.29
2022-11-05T23:08:01.142Z,9.26
2022-11-05T23:13:07.647Z,9.20
2022-11-05T23:18:29.005Z,9.19
2022-11-05T23:23:50.410Z,9.04
2022-11-05T23:28:55.441Z,9.11
2022-11-05T23:33:59.191Z,9.07
2022-11-05T23:39:02.834Z,9.07
2022-11-05T23:44:27.580Z,9.04
2022-11-05T23:49:31.555Z,9.02
2022-11-05T23:54:35.261Z,9.00
2022-11-05T23:59:40.258Z,8.98
